createdAt,value
2023-05-15T00:01:04.516Z,100307.19
2023-05-15T00:06:07.329Z,100307.13
2023-05-15T00:11:09.992Z,100311.31
2023-05-15T00:16:12.812Z,100311.44
2023-05-15T00:21:15.572Z,100316.59
2023-05-15T00:26:18.297Z,100323.34
2023-05-15T00:31:21.443Z,100325.09
2023-05-15T00:36:26.022Z,100298.97
2023-05-15T00:41:32.323Z,100312.69
2023-05-15T00:46:36.566Z,100316.16
2023-05-15T00:51:42.462Z,100322.06
2023-05-15T00:56:46.358Z,100326.41
2023-05-15T01:01:49.097Z,100318.56
2023-05-15T01:06:54.921Z,100325.34
2023-05-15T01:12:00.952Z,100329.63
2023-05-15T01:17:03.682Z,100325.34
2023-05-15T01:22:36.441Z,100331.44
2023-05-15T01:27:54.773Z,100321.19
2023-05-15T01:33:25.790Z,100326.84
2023-05-15T01:38:40.018Z,100319.22
2023-05-15T01:43:45.909Z,100308.94
2023-05-15T01:48:51.227Z,100316.31
2023-05-15T01:53:56.510Z,100294.66
2023-05-15T01:59:00.728Z,100309.25
2023-05-15T02:04:05.120Z,100295.97
2023-05-15T02:09:09.820Z,100291.59
2023-05-15T02:14:13.178Z,100297.22
2023-05-15T02:19:16.094Z,100297.88
2023-05-15T02:24:18.855Z,100287.47
2023-05-15T02:29:36.802Z,100280.31
2023-05-15T02:35:04.415Z,100275.56
2023-05-15T02:40:12.121Z,100286.28
2023-05-15T02:45:15.288Z,100282.22
2023-05-15T02:50:18.921Z,100288.59
2023-05-15T02:55:21.588Z,100284.22
2023-05-15T03:00:24.298Z,100297.13
2023-05-15T03:05:27.390Z,100300.69
2023-05-15T03:10:30.388Z,100327.03
2023-05-15T03:15:33.094Z,100330.03
2023-05-15T03:20:35.905Z,100330.47
2023-05-15T03:25:38.625Z,100335.56
2023-05-15T03:30:44.698Z,100328.94
2023-05-15T03:35:47.357Z,100342.09
2023-05-15T03:40:51.230Z,100326.34
2023-05-15T03:45:54.352Z,100350.59
2023-05-15T03:50:57.247Z,100342.28
2023-05-15T03:55:59.951Z,100344.75
2023-05-15T04:01:02.666Z,100351.34
2023-05-15T04:06:05.764Z,100350.78
2023-05-15T04:11:08.646Z,100356.41
2023-05-15T04:16:11.321Z,100352.44
2023-05-15T04:21:14.361Z,100358.97
2023-05-15T04:26:17.367Z,100352.53
2023-05-15T04:31:20.171Z,100356.19
2023-05-15T04:36:23.151Z,100356.59
2023-05-15T04:41:26.825Z,100355.59
2023-05-15T04:46:29.615Z,100366.53
2023-05-15T04:51:32.340Z,100358.28
2023-05-15T04:56:34.962Z,100363.63
2023-05-15T05:01:37.728Z,100360.81
2023-05-15T05:06:40.422Z,100360.00
2023-05-15T05:11:43.870Z,100354.13
2023-05-15T05:16:46.837Z,100349.25
2023-05-15T05:21:49.512Z,100356.25
2023-05-15T05:26:52.085Z,100351.63
2023-05-15T05:31:54.870Z,100351.91
2023-05-15T05:36:57.786Z,100342.94
2023-05-15T05:42:00.459Z,100354.41
2023-05-15T05:47:03.338Z,100344.34
2023-05-15T05:52:08.210Z,100353.72
2023-05-15T05:57:11.028Z,100345.03
2023-05-15T06:02:13.748Z,100337.31
2023-05-15T06:07:16.501Z,100347.63
2023-05-15T06:12:21.555Z,100344.38
2023-05-15T06:17:27.675Z,100343.34
2023-05-15T06:22:33.130Z,100336.81
2023-05-15T06:27:36.551Z,100343.25
2023-05-15T06:32:40.763Z,100332.59
2023-05-15T06:37:43.716Z,100292.91
2023-05-15T06:42:47.308Z,100326.13
2023-05-15T06:47:49.964Z,100316.88
2023-05-15T06:52:52.800Z,100325.47
2023-05-15T06:57:55.548Z,100324.09
2023-05-15T07:02:58.216Z,100320.47
2023-05-15T07:08:00.996Z,100318.91
2023-05-15T07:13:03.680Z,100318.56
2023-05-15T07:18:06.895Z,100333.34
2023-05-15T07:23:09.931Z,100328.41
2023-05-15T07:28:12.690Z,100316.31
2023-05-15T07:33:15.891Z,100303.81
2023-05-15T07:38:18.875Z,100309.00
2023-05-15T07:43:21.532Z,100308.59
2023-05-15T07:48:24.610Z,100303.69
2023-05-15T07:53:27.462Z,100298.69
2023-05-15T07:58:30.348Z,100284.75
2023-05-15T08:03:34.228Z,100280.28
2023-05-15T08:08:37.425Z,100284.53
2023-05-15T08:13:40.203Z,100283.44
2023-05-15T08:18:42.890Z,100276.00
2023-05-15T08:23:45.637Z,100278.69
2023-05-15T08:28:48.376Z,100277.25
2023-05-15T08:33:50.998Z,100260.94
2023-05-15T08:38:53.682Z,100266.84
2023-05-15T08:43:58.486Z,100255.25
2023-05-15T08:49:10.433Z,100262.00
2023-05-15T08:54:13.226Z,100222.41
2023-05-15T08:59:16.126Z,100207.75
2023-05-15T09:04:19.528Z,100252.59
2023-05-15T09:09:24.324Z,100211.81
2023-05-15T09:14:27.148Z,100232.97
2023-05-15T09:19:30.729Z,100244.53
2023-05-15T09:24:38.048Z,100228.28
2023-05-15T09:29:41.478Z,100201.97
2023-05-15T09:34:45.163Z,100197.91
2023-05-15T09:39:47.915Z,100196.78
2023-05-15T09:44:50.599Z,100205.09
2023-05-15T09:49:53.412Z,100194.78
2023-05-15T09:54:57.105Z,100185.75
2023-05-15T10:00:05.351Z,100182.06
2023-05-15T10:05:16.051Z,100147.03
2023-05-15T10:10:18.768Z,100176.63
2023-05-15T10:15:23.092Z,100174.97
2023-05-15T10:20:26.975Z,100164.25
2023-05-15T10:25:55.969Z,100176.19
2023-05-15T10:31:01.639Z,100166.19
2023-05-15T10:36:05.720Z,100166.81
2023-05-15T10:41:17.314Z,100159.50
2023-05-15T10:46:22.233Z,100164.88
2023-05-15T10:51:29.610Z,100165.38
2023-05-15T10:56:34.337Z,100163.44
2023-05-15T11:01:41.517Z,100159.50
2023-05-15T11:06:48.596Z,100149.72
2023-05-15T11:11:57.156Z,100147.72
2023-05-15T11:17:03.939Z,100168.94
2023-05-15T11:22:09.816Z,100163.13
2023-05-15T11:27:17.025Z,100122.41
2023-05-15T11:32:40.889Z,100140.97
2023-05-15T11:37:45.848Z,100138.19
2023-05-15T11:43:08.662Z,100133.47
2023-05-15T11:48:15.335Z,100123.09
2023-05-15T11:53:19.035Z,100119.66
2023-05-15T11:58:23.258Z,100113.97
2023-05-15T12:03:38.506Z,100107.59
2023-05-15T12:08:42.308Z,100106.03
2023-05-15T12:13:45.004Z,100105.47
2023-05-15T12:18:47.827Z,100099.56
2023-05-15T12:24:03.917Z,100103.25
2023-05-15T12:29:10.504Z,100093.81
2023-05-15T12:34:13.416Z,100091.63
2023-05-15T12:39:16.075Z,100094.41
2023-05-15T12:44:18.840Z,100084.53
2023-05-15T12:49:22.977Z,100084.25
2023-05-15T12:54:26.382Z,100087.09
2023-05-15T12:59:30.192Z,100074.09
2023-05-15T13:04:33.758Z,100060.75
2023-05-15T13:09:37.040Z,100057.47
2023-05-15T13:14:42.267Z,100054.47
2023-05-15T13:19:45.004Z,100045.09
2023-05-15T13:24:49.023Z,100046.63
2023-05-15T13:29:51.682Z,100030.28
2023-05-15T13:34:58.949Z,100041.03
2023-05-15T13:40:01.621Z,100037.56
2023-05-15T13:45:07.838Z,100037.63
2023-05-15T13:50:12.810Z,100037.06
2023-05-15T13:55:15.743Z,100038.25
2023-05-15T14:00:19.905Z,100037.59
2023-05-15T14:05:22.585Z,100025.25
2023-05-15T14:10:25.593Z,100010.06
2023-05-15T14:15:31.286Z,100031.97
2023-05-15T14:20:34.008Z,100027.50
2023-05-15T14:25:36.808Z,100017.94
2023-05-15T14:30:39.407Z,100028.03
2023-05-15T14:35:42.071Z,100026.78
2023-05-15T14:40:44.934Z,100023.69
2023-05-15T14:45:47.728Z,100008.25
2023-05-15T14:50:51.262Z,100017.91
2023-05-15T14:55:58.630Z,100002.84
2023-05-15T15:01:01.465Z,100009.25
2023-05-15T15:06:04.562Z,100013.63
2023-05-15T15:11:07.915Z,100006.63
2023-05-15T15:16:10.887Z,100002.97
2023-05-15T15:21:13.664Z,100008.88
2023-05-15T15:26:16.370Z,100003.03
2023-05-15T15:31:19.859Z,99994.78
2023-05-15T15:36:24.899Z,99994.00
2023-05-15T15:41:31.851Z,100003.19
2023-05-15T15:46:34.511Z,99999.19
2023-05-15T15:51:37.340Z,99997.94
2023-05-15T15:56:40.423Z,99990.59
2023-05-15T16:01:43.448Z,99995.56
2023-05-15T16:06:46.292Z,99993.66
2023-05-15T16:11:49.026Z,100000.00
2023-05-15T16:16:51.769Z,100003.94
2023-05-15T16:21:54.571Z,99993.78
2023-05-15T16:26:57.408Z,99995.41
2023-05-15T16:32:00.905Z,100000.13
2023-05-15T16:37:04.100Z,100004.53
2023-05-15T16:42:09.326Z,99994.09
2023-05-15T16:47:12.321Z,100000.31
2023-05-15T16:52:14.975Z,99996.38
2023-05-15T16:57:17.649Z,100008.78
2023-05-15T17:02:20.300Z,99999.53
2023-05-15T17:07:23.063Z,99983.28
2023-05-15T17:12:25.826Z,100022.88
2023-05-15T17:17:28.702Z,99996.97
2023-05-15T17:22:31.682Z,100011.03
2023-05-15T17:27:39.912Z,100023.78
2023-05-15T17:32:43.356Z,100029.84
2023-05-15T17:37:46.071Z,100030.88
2023-05-15T17:42:48.918Z,100041.31
2023-05-15T17:47:52.399Z,100037.63
2023-05-15T17:52:55.199Z,100039.88
2023-05-15T17:57:57.938Z,100041.25
2023-05-15T18:03:01.376Z,100032.34
2023-05-15T18:08:04.613Z,100047.06
2023-05-15T18:13:07.322Z,100067.38
2023-05-15T18:18:11.082Z,100063.34
2023-05-15T18:23:13.916Z,100055.38
2023-05-15T18:28:16.680Z,100069.59
2023-05-15T18:33:19.654Z,100076.06
2023-05-15T18:38:22.527Z,100053.97
2023-05-15T18:43:25.208Z,100075.63
2023-05-15T18:48:27.883Z,100072.44
2023-05-15T18:53:30.741Z,100070.84
2023-05-15T18:58:33.511Z,100068.50
2023-05-15T19:03:36.509Z,100068.56
2023-05-15T19:08:39.220Z,100061.66
2023-05-15T19:13:41.916Z,100073.19
2023-05-15T19:18:44.912Z,100059.91
2023-05-15T19:23:48.299Z,100074.78
2023-05-15T19:28:52.836Z,100077.47
2023-05-15T19:33:55.619Z,100075.03
2023-05-15T19:38:58.486Z,100087.34
2023-05-15T19:44:01.410Z,100087.47
2023-05-15T19:49:04.233Z,100082.47
2023-05-15T19:54:07.232Z,100095.00
2023-05-15T19:59:15.026Z,100091.81
2023-05-15T20:04:19.354Z,100096.22
2023-05-15T20:09:21.971Z,100106.81
2023-05-15T20:14:24.694Z,100107.84
2023-05-15T20:19:32.638Z,100111.06
2023-05-15T20:24:35.636Z,100104.41
2023-05-15T20:29:41.510Z,100097.38
2023-05-15T20:34:45.946Z,100090.50
2023-05-15T20:39:48.949Z,100099.94
2023-05-15T20:44:51.889Z,100106.06
2023-05-15T20:49:54.906Z,100110.44
2023-05-15T20:54:57.626Z,100111.47
2023-05-15T21:00:00.292Z,100109.94
2023-05-15T21:05:03.024Z,100116.88
2023-05-15T21:10:07.351Z,100116.06
2023-05-15T21:15:14.200Z,100114.31
2023-05-15T21:20:16.902Z,100117.88
2023-05-15T21:25:19.745Z,100123.22
2023-05-15T21:30:22.536Z,100125.00
2023-05-15T21:35:25.713Z,100125.91
2023-05-15T21:40:28.817Z,100140.56
2023-05-15T21:45:31.723Z,100134.53
2023-05-15T21:50:35.207Z,100142.31
2023-05-15T21:55:37.881Z,100134.59
2023-05-15T22:00:40.632Z,100152.78
2023-05-15T22:05:44.165Z,100147.59
2023-05-15T22:10:47.140Z,100152.84
2023-05-15T22:15:49.761Z,100152.03
2023-05-15T22:20:52.703Z,100146.81
2023-05-15T22:25:55.414Z,100145.06
2023-05-15T22:30:58.118Z,100145.09
2023-05-15T22:36:01.071Z,100149.38
2023-05-15T22:41:04.038Z,100139.88
2023-05-15T22:46:06.743Z,100137.25
2023-05-15T22:51:09.467Z,100139.88
2023-05-15T22:56:12.260Z,100131.31
2023-05-15T23:01:15.041Z,100139.97
2023-05-15T23:06:29.965Z,100128.81
2023-05-15T23:11:38.034Z,100138.31
2023-05-15T23:16:41.039Z,100144.34
2023-05-15T23:21:43.807Z,100136.59
2023-05-15T23:26:47.137Z,100110.72
2023-05-15T23:31:50.038Z,100120.19
2023-05-15T23:36:52.852Z,100140.88
2023-05-15T23:41:59.319Z,100140.88
2023-05-15T23:47:02.094Z,100143.44
2023-05-15T23:52:05.118Z,100130.44
2023-05-15T23:57:07.826Z,100133.88
